Terminal Aerodrome Forecast
Issued by NWS

Current Version | Previous Version | Text Only | Print | Product List | Glossary Off
Versions: 1 2 3 4 5 6 7 8 9 10 11 12 13 14 15 16 17 18 19 20 21 22 23 24 25 26 27 28 29 30 31

000
FTUS41 KRLX 152323
TAFCKB
TAF
KCKB 152323Z 1600/1624 29005KT P6SM SCT040
     FM160400 00000KT 3SM BR FEW250
     FM160600 00000KT 2SM BR FEW250
     FM160700 00000KT 1/2SM FG OVC001
     FM161230 00000KT 4SM BR SCT002
     FM161300 VRB03KT P6SM SCT040=

USA.gov is the U.S. government's official web portal to all federal, state and local government web resources and services.